Furue, Japan

9:55 AM JST on March 25, 2017 (GMT +0900)
国道225号線 | | Change Station

Elev 19 ft 31.56 °N, 130.55 °E | Updated 18 minutes ago

Rain
Rain
51.3 °F
Feels Like 51.3 °F
N
0.6
Wind Variable Wind from West
Gusts 1.2 mph

Today
High -- | Low -- °F
--% Chance of Precip.
Yesterday
High -- | Low -- °F
Precip. -- in
Pressure 30.09 in
Visibility 2.2 miles
Clouds Few 400 ft
Scattered Clouds 600 ft
Mostly Cloudy 900 ft
Dew Point 33 °F
Humidity 50%
Rainfall Not available.
Snow Depth Not available.
6:14 AM 6:31 PM
Waning Crescent, 12% visible
SPECI RJFM 250036Z 30004KT 270V350 3500 -SHRA BR FEW004 SCT006 BKN009 08/07 Q1019 RMK 1ST004 3ST006 5ST009 A3011
Pressure 30.09 in
Visibility 2.2 miles
Clouds Few 400 ft
Scattered Clouds 600 ft
Mostly Cloudy 900 ft
Dew Point 33 °F
Humidity 50%
Rainfall Not available.
Snow Depth Not available.
6:14 AM 6:31 PM
Waning Crescent, 12% visible
SPECI RJFM 250036Z 30004KT 270V350 3500 -SHRA BR FEW004 SCT006 BKN009 08/07 Q1019 RMK 1ST004 3ST006 5ST009 A3011

Get Severe Weather Alerts

Thanks for signing up!

Be on the lookout for a verification email in your inbox.

You'll start receiving the daily forecast at 8 AM.

×

10-Day Weather Forecast

No radar image for this location.
×

Almanac

Astronomy

Mar. 25, 2017 Rise Set
Actual Time
Civil Twilight
Nautical Twilight
Astronomical Twilight
Moon
Length of Visible Light
Length of Day
Tomorrow will be .
, % of the Moon is Illuminated

Today's Extremes

Country Highs Country Lows

Community

WunderPhotos

Upload Photos

1,962,540 photos uploaded!

WunderBlog® & News

Nearby

Air Quality

  Air Quality AQ Index Pollutant
Not available.

Snow Depth

Station Depth Elevation

Earthquake Activity

City Distance Mag. Time & Date
Minimum magnitude displayed is 2.5.

Earthquake Activity

City Distance Mag. Time & Date
Minimum magnitude displayed is 2.5.

Coastal Water Temperatures

Place Temperature

Stations

Nearby Weather Stations

Station Location Temp. Windchill Dew Point Humidity Wind Precip. Elev Updated Type